Elmdale, New York
Current Conditions -  °F | °C
As of 9:58 AM on Saturday 20 Dec 2014 (Local Time) from KGTB Reporting Station
Clear Clear  
Wind Chill: 15°   Ceiling: Unl
Heat Index: 15°   Visibility: 10mi
Dew Point: 12°   Wind: 3mph
Humidity: 86%   Direction: 100°E
Pressure: 30.29"   Gusts: NA
Location:  44.3309°N, 75.4775°W
Report Text: KGTB 201458Z AUTO 10003KT 10SM CLR M09/M11 A3029 RMK AO2 UPB1440E1449 SLP271 P0000 60000 T10921111 50008
Loading
Personal Weather Stations






























Interactive Weather Map New forecast layout! Learn more

10-Day Weather Forecast

Advertisements
Track Severe Weather on mobile